sensor_id;sensor_type;location;lat;lon;timestamp;P1;durP1;ratioP1;P2;durP2;ratioP2
3567;SDS011;1798;48.486;9.232;2022-11-20T00:00:12;9.20;;;4.03;;
3567;SDS011;1798;48.486;9.232;2022-11-20T00:02:40;7.38;;;3.70;;
3567;SDS011;1798;48.486;9.232;2022-11-20T00:05:07;9.45;;;4.50;;
3567;SDS011;1798;48.486;9.232;2022-11-20T00:07:34;7.60;;;3.83;;
3567;SDS011;1798;48.486;9.232;2022-11-20T00:10:01;7.50;;;3.80;;
3567;SDS011;1798;48.486;9.232;2022-11-20T00:12:28;10.70;;;4.32;;
3567;SDS011;1798;48.486;9.232;2022-11-20T00:14:55;8.98;;;4.60;;
3567;SDS011;1798;48.486;9.232;2022-11-20T00:17:23;10.73;;;4.13;;
3567;SDS011;1798;48.486;9.232;2022-11-20T00:19:50;9.57;;;4.00;;
3567;SDS011;1798;48.486;9.232;2022-11-20T00:22:17;8.30;;;3.90;;
3567;SDS011;1798;48.486;9.232;2022-11-20T00:24:43;7.88;;;3.70;;
3567;SDS011;1798;48.486;9.232;2022-11-20T00:27:10;8.75;;;4.10;;
3567;SDS011;1798;48.486;9.232;2022-11-20T00:29:37;10.35;;;4.35;;
3567;SDS011;1798;48.486;9.232;2022-11-20T00:32:04;10.43;;;3.88;;
3567;SDS011;1798;48.486;9.232;2022-11-20T00:34:32;8.68;;;4.10;;
3567;SDS011;1798;48.486;9.232;2022-11-20T00:36:58;8.57;;;4.28;;
3567;SDS011;1798;48.486;9.232;2022-11-20T00:39:25;9.00;;;4.10;;
3567;SDS011;1798;48.486;9.232;2022-11-20T00:41:52;8.75;;;3.72;;
3567;SDS011;1798;48.486;9.232;2022-11-20T00:44:19;6.90;;;3.58;;
3567;SDS011;1798;48.486;9.232;2022-11-20T00:46:45;7.78;;;4.30;;
3567;SDS011;1798;48.486;9.232;2022-11-20T00:49:12;10.70;;;3.90;;
3567;SDS011;1798;48.486;9.232;2022-11-20T00:51:42;6.35;;;3.85;;
3567;SDS011;1798;48.486;9.232;2022-11-20T00:54:09;8.13;;;4.10;;
3567;SDS011;1798;48.486;9.232;2022-11-20T00:56:36;8.80;;;4.10;;
3567;SDS011;1798;48.486;9.232;2022-11-20T00:59:03;9.40;;;4.60;;
3567;SDS011;1798;48.486;9.232;2022-11-20T01:01:30;12.48;;;4.82;;
3567;SDS011;1798;48.486;9.232;2022-11-20T01:03:57;7.80;;;4.30;;
3567;SDS011;1798;48.486;9.232;2022-11-20T01:06:26;9.83;;;4.80;;
3567;SDS011;1798;48.486;9.232;2022-11-20T01:08:55;7.35;;;4.03;;
3567;SDS011;1798;48.486;9.232;2022-11-20T01:11:24;13.85;;;4.20;;
3567;SDS011;1798;48.486;9.232;2022-11-20T01:13:52;13.18;;;4.00;;
3567;SDS011;1798;48.486;9.232;2022-11-20T01:16:20;7.35;;;4.30;;
3567;SDS011;1798;48.486;9.232;2022-11-20T01:18:48;10.43;;;4.72;;
3567;SDS011;1798;48.486;9.232;2022-11-20T01:21:17;10.00;;;4.75;;
3567;SDS011;1798;48.486;9.232;2022-11-20T01:23:45;9.15;;;4.53;;
3567;SDS011;1798;48.486;9.232;2022-11-20T01:26:14;8.87;;;4.40;;
3567;SDS011;1798;48.486;9.232;2022-11-20T01:28:42;7.20;;;4.00;;
3567;SDS011;1798;48.486;9.232;2022-11-20T01:31:13;7.95;;;4.40;;
3567;SDS011;1798;48.486;9.232;2022-11-20T01:33:41;7.60;;;4.50;;
3567;SDS011;1798;48.486;9.232;2022-11-20T01:36:09;9.03;;;4.73;;
3567;SDS011;1798;48.486;9.232;2022-11-20T01:38:37;13.15;;;4.82;;
3567;SDS011;1798;48.486;9.232;2022-11-20T01:41:04;7.00;;;4.53;;
3567;SDS011;1798;48.486;9.232;2022-11-20T01:43:33;7.95;;;4.88;;
3567;SDS011;1798;48.486;9.232;2022-11-20T01:46:00;9.93;;;5.30;;
3567;SDS011;1798;48.486;9.232;2022-11-20T01:48:30;13.13;;;4.20;;
3567;SDS011;1798;48.486;9.232;2022-11-20T01:51:00;8.50;;;4.73;;
3567;SDS011;1798;48.486;9.232;2022-11-20T01:53:28;8.73;;;4.40;;
3567;SDS011;1798;48.486;9.232;2022-11-20T01:55:56;9.43;;;4.10;;
3567;SDS011;1798;48.486;9.232;2022-11-20T01:58:27;13.18;;;5.43;;
3567;SDS011;1798;48.486;9.232;2022-11-20T02:00:56;8.57;;;4.13;;
3567;SDS011;1798;48.486;9.232;2022-11-20T02:03:23;10.30;;;4.72;;
3567;SDS011;1798;48.486;9.232;2022-11-20T02:05:51;8.75;;;4.72;;
3567;SDS011;1798;48.486;9.232;2022-11-20T02:08:20;8.25;;;4.50;;
3567;SDS011;1798;48.486;9.232;2022-11-20T02:10:48;13.20;;;4.63;;
3567;SDS011;1798;48.486;9.232;2022-11-20T02:13:14;8.68;;;4.10;;
3567;SDS011;1798;48.486;9.232;2022-11-20T02:16:00;9.70;;;4.27;;
3567;SDS011;1798;48.486;9.232;2022-11-20T02:18:28;9.23;;;4.22;;
3567;SDS011;1798;48.486;9.232;2022-11-20T02:20:56;9.27;;;4.60;;
3567;SDS011;1798;48.486;9.232;2022-11-20T02:23:27;8.02;;;4.45;;
3567;SDS011;1798;48.486;9.232;2022-11-20T02:25:59;6.63;;;4.22;;
3567;SDS011;1798;48.486;9.232;2022-11-20T02:28:28;7.63;;;4.43;;
3567;SDS011;1798;48.486;9.232;2022-11-20T02:30:55;8.40;;;4.50;;
3567;SDS011;1798;48.486;9.232;2022-11-20T02:33:22;6.97;;;3.83;;
3567;SDS011;1798;48.486;9.232;2022-11-20T02:35:48;9.07;;;4.22;;
3567;SDS011;1798;48.486;9.232;2022-11-20T02:38:15;9.75;;;4.43;;
3567;SDS011;1798;48.486;9.232;2022-11-20T02:40:42;7.95;;;3.90;;
3567;SDS011;1798;48.486;9.232;2022-11-20T02:43:10;7.50;;;4.25;;
3567;SDS011;1798;48.486;9.232;2022-11-20T02:45:37;6.68;;;3.50;;
3567;SDS011;1798;48.486;9.232;2022-11-20T02:48:05;10.18;;;4.60;;
3567;SDS011;1798;48.486;9.232;2022-11-20T02:50:32;6.10;;;3.50;;
3567;SDS011;1798;48.486;9.232;2022-11-20T02:52:58;6.82;;;4.40;;
3567;SDS011;1798;48.486;9.232;2022-11-20T02:55:25;6.82;;;3.85;;
3567;SDS011;1798;48.486;9.232;2022-11-20T02:57:52;8.65;;;4.40;;
3567;SDS011;1798;48.486;9.232;2022-11-20T03:00:20;11.20;;;4.47;;
3567;SDS011;1798;48.486;9.232;2022-11-20T03:02:47;7.80;;;3.97;;
3567;SDS011;1798;48.486;9.232;2022-11-20T03:05:14;7.32;;;4.03;;
3567;SDS011;1798;48.486;9.232;2022-11-20T03:07:40;7.90;;;3.50;;
3567;SDS011;1798;48.486;9.232;2022-11-20T03:10:08;7.43;;;4.30;;
3567;SDS011;1798;48.486;9.232;2022-11-20T03:12:35;6.43;;;3.50;;
3567;SDS011;1798;48.486;9.232;2022-11-20T03:15:02;6.90;;;3.70;;
3567;SDS011;1798;48.486;9.232;2022-11-20T03:17:30;7.13;;;3.80;;
3567;SDS011;1798;48.486;9.232;2022-11-20T03:19:57;9.85;;;4.10;;
3567;SDS011;1798;48.486;9.232;2022-11-20T03:22:24;9.02;;;4.20;;
3567;SDS011;1798;48.486;9.232;2022-11-20T03:24:50;7.90;;;3.55;;
3567;SDS011;1798;48.486;9.232;2022-11-20T03:27:17;6.63;;;3.58;;
3567;SDS011;1798;48.486;9.232;2022-11-20T03:29:44;6.97;;;4.05;;
3567;SDS011;1798;48.486;9.232;2022-11-20T03:32:10;6.15;;;3.78;;
3567;SDS011;1798;48.486;9.232;2022-11-20T03:34:39;7.57;;;3.72;;
3567;SDS011;1798;48.486;9.232;2022-11-20T03:37:05;10.32;;;3.70;;
3567;SDS011;1798;48.486;9.232;2022-11-20T03:39:32;8.88;;;3.70;;
3567;SDS011;1798;48.486;9.232;2022-11-20T03:41:59;6.95;;;3.97;;
3567;SDS011;1798;48.486;9.232;2022-11-20T03:44:26;8.47;;;3.90;;
3567;SDS011;1798;48.486;9.232;2022-11-20T03:46:52;5.45;;;3.10;;
3567;SDS011;1798;48.486;9.232;2022-11-20T03:49:19;7.45;;;3.30;;
3567;SDS011;1798;48.486;9.232;2022-11-20T03:51:47;8.07;;;3.70;;
3567;SDS011;1798;48.486;9.232;2022-11-20T03:54:14;8.40;;;4.13;;
3567;SDS011;1798;48.486;9.232;2022-11-20T03:56:41;7.75;;;3.47;;
3567;SDS011;1798;48.486;9.232;2022-11-20T03:59:09;8.43;;;4.22;;
3567;SDS011;1798;48.486;9.232;2022-11-20T04:01:36;11.38;;;3.55;;
3567;SDS011;1798;48.486;9.232;2022-11-20T04:04:03;6.80;;;3.50;;
3567;SDS011;1798;48.486;9.232;2022-11-20T04:06:33;7.82;;;4.00;;
3567;SDS011;1798;48.486;9.232;2022-11-20T04:09:03;8.20;;;3.60;;
3567;SDS011;1798;48.486;9.232;2022-11-20T04:11:31;7.05;;;3.40;;
3567;SDS011;1798;48.486;9.232;2022-11-20T04:14:00;5.70;;;3.50;;
3567;SDS011;1798;48.486;9.232;2022-11-20T04:16:29;7.82;;;3.30;;
3567;SDS011;1798;48.486;9.232;2022-11-20T04:18:57;7.78;;;4.20;;
3567;SDS011;1798;48.486;9.232;2022-11-20T04:21:25;7.50;;;3.60;;
3567;SDS011;1798;48.486;9.232;2022-11-20T04:23:52;8.10;;;3.65;;
3567;SDS011;1798;48.486;9.232;2022-11-20T04:26:21;6.70;;;3.20;;
3567;SDS011;1798;48.486;9.232;2022-11-20T04:28:49;7.40;;;3.80;;
3567;SDS011;1798;48.486;9.232;2022-11-20T04:31:16;7.50;;;3.50;;
3567;SDS011;1798;48.486;9.232;2022-11-20T04:33:44;13.40;;;3.50;;
3567;SDS011;1798;48.486;9.232;2022-11-20T04:36:11;6.78;;;3.88;;
3567;SDS011;1798;48.486;9.232;2022-11-20T04:38:39;7.43;;;3.40;;
3567;SDS011;1798;48.486;9.232;2022-11-20T04:41:06;7.10;;;3.40;;
3567;SDS011;1798;48.486;9.232;2022-11-20T04:43:35;11.10;;;4.10;;
3567;SDS011;1798;48.486;9.232;2022-11-20T04:46:02;9.07;;;4.30;;
3567;SDS011;1798;48.486;9.232;2022-11-20T04:48:29;6.75;;;3.20;;
3567;SDS011;1798;48.486;9.232;2022-11-20T04:50:56;6.70;;;3.80;;
3567;SDS011;1798;48.486;9.232;2022-11-20T04:53:23;9.48;;;3.00;;
3567;SDS011;1798;48.486;9.232;2022-11-20T04:55:50;6.10;;;3.40;;
3567;SDS011;1798;48.486;9.232;2022-11-20T04:58:17;6.70;;;3.88;;
3567;SDS011;1798;48.486;9.232;2022-11-20T05:00:45;9.00;;;3.80;;
3567;SDS011;1798;48.486;9.232;2022-11-20T05:03:12;5.47;;;3.25;;
3567;SDS011;1798;48.486;9.232;2022-11-20T05:05:38;7.65;;;3.70;;
3567;SDS011;1798;48.486;9.232;2022-11-20T05:08:05;5.75;;;3.25;;
3567;SDS011;1798;48.486;9.232;2022-11-20T05:10:32;7.20;;;3.60;;
3567;SDS011;1798;48.486;9.232;2022-11-20T05:12:58;8.27;;;3.53;;
3567;SDS011;1798;48.486;9.232;2022-11-20T05:15:25;6.18;;;3.38;;
3567;SDS011;1798;48.486;9.232;2022-11-20T05:17:53;5.95;;;3.50;;
3567;SDS011;1798;48.486;9.232;2022-11-20T05:20:20;5.93;;;3.13;;
3567;SDS011;1798;48.486;9.232;2022-11-20T05:22:47;7.20;;;3.30;;
3567;SDS011;1798;48.486;9.232;2022-11-20T05:25:13;6.65;;;3.90;;
3567;SDS011;1798;48.486;9.232;2022-11-20T05:27:40;8.20;;;3.40;;
3567;SDS011;1798;48.486;9.232;2022-11-20T05:30:08;8.18;;;3.38;;
3567;SDS011;1798;48.486;9.232;2022-11-20T05:32:36;8.10;;;3.30;;
3567;SDS011;1798;48.486;9.232;2022-11-20T05:35:04;6.45;;;3.30;;
3567;SDS011;1798;48.486;9.232;2022-11-20T05:37:31;5.10;;;3.17;;
3567;SDS011;1798;48.486;9.232;2022-11-20T05:39:58;7.65;;;3.35;;
3567;SDS011;1798;48.486;9.232;2022-11-20T05:42:25;7.32;;;3.90;;
3567;SDS011;1798;48.486;9.232;2022-11-20T05:44:58;6.00;;;3.70;;
3567;SDS011;1798;48.486;9.232;2022-11-20T05:47:25;6.13;;;3.30;;
3567;SDS011;1798;48.486;9.232;2022-11-20T05:49:51;6.50;;;3.73;;
3567;SDS011;1798;48.486;9.232;2022-11-20T05:52:19;5.50;;;3.20;;
3567;SDS011;1798;48.486;9.232;2022-11-20T05:54:46;4.97;;;3.03;;
3567;SDS011;1798;48.486;9.232;2022-11-20T05:57:13;6.43;;;3.00;;
3567;SDS011;1798;48.486;9.232;2022-11-20T05:59:40;6.72;;;3.20;;
3567;SDS011;1798;48.486;9.232;2022-11-20T06:02:06;9.23;;;3.40;;
3567;SDS011;1798;48.486;9.232;2022-11-20T06:04:33;6.90;;;3.30;;
3567;SDS011;1798;48.486;9.232;2022-11-20T06:07:00;5.60;;;3.40;;
3567;SDS011;1798;48.486;9.232;2022-11-20T06:09:28;9.10;;;3.75;;
3567;SDS011;1798;48.486;9.232;2022-11-20T06:11:55;7.88;;;3.42;;
3567;SDS011;1798;48.486;9.232;2022-11-20T06:14:22;5.65;;;3.20;;
3567;SDS011;1798;48.486;9.232;2022-11-20T06:16:48;5.32;;;3.15;;
3567;SDS011;1798;48.486;9.232;2022-11-20T06:19:15;7.60;;;3.17;;
3567;SDS011;1798;48.486;9.232;2022-11-20T06:21:42;7.78;;;3.40;;
3567;SDS011;1798;48.486;9.232;2022-11-20T06:24:09;5.50;;;3.00;;
3567;SDS011;1798;48.486;9.232;2022-11-20T06:26:37;7.55;;;3.30;;
3567;SDS011;1798;48.486;9.232;2022-11-20T06:29:04;6.97;;;3.70;;
3567;SDS011;1798;48.486;9.232;2022-11-20T06:31:31;6.93;;;3.30;;
3567;SDS011;1798;48.486;9.232;2022-11-20T06:34:00;5.40;;;3.10;;
3567;SDS011;1798;48.486;9.232;2022-11-20T06:36:26;8.27;;;3.00;;
3567;SDS011;1798;48.486;9.232;2022-11-20T06:38:53;6.40;;;3.00;;
3567;SDS011;1798;48.486;9.232;2022-11-20T06:41:20;8.50;;;2.95;;
3567;SDS011;1798;48.486;9.232;2022-11-20T06:43:49;5.78;;;3.13;;
3567;SDS011;1798;48.486;9.232;2022-11-20T06:46:16;9.77;;;3.20;;
3567;SDS011;1798;48.486;9.232;2022-11-20T06:48:44;9.60;;;4.00;;
3567;SDS011;1798;48.486;9.232;2022-11-20T06:51:11;7.30;;;3.73;;
3567;SDS011;1798;48.486;9.232;2022-11-20T06:53:38;5.70;;;3.60;;
3567;SDS011;1798;48.486;9.232;2022-11-20T06:56:05;6.55;;;3.55;;
3567;SDS011;1798;48.486;9.232;2022-11-20T06:58:33;6.25;;;3.75;;
3567;SDS011;1798;48.486;9.232;2022-11-20T07:01:03;8.65;;;3.70;;
3567;SDS011;1798;48.486;9.232;2022-11-20T07:03:31;7.05;;;3.30;;
3567;SDS011;1798;48.486;9.232;2022-11-20T07:05:59;6.05;;;3.47;;
3567;SDS011;1798;48.486;9.232;2022-11-20T07:08:27;6.35;;;3.10;;
3567;SDS011;1798;48.486;9.232;2022-11-20T07:10:56;6.05;;;3.22;;
3567;SDS011;1798;48.486;9.232;2022-11-20T07:13:24;5.80;;;3.35;;
3567;SDS011;1798;48.486;9.232;2022-11-20T07:15:51;6.15;;;3.35;;
3567;SDS011;1798;48.486;9.232;2022-11-20T07:18:19;6.78;;;3.50;;
3567;SDS011;1798;48.486;9.232;2022-11-20T07:20:46;5.75;;;3.30;;
3567;SDS011;1798;48.486;9.232;2022-11-20T07:23:13;5.45;;;2.97;;
3567;SDS011;1798;48.486;9.232;2022-11-20T07:25:40;5.60;;;2.80;;
3567;SDS011;1798;48.486;9.232;2022-11-20T07:28:06;9.80;;;3.50;;
3567;SDS011;1798;48.486;9.232;2022-11-20T07:30:36;6.93;;;3.22;;
3567;SDS011;1798;48.486;9.232;2022-11-20T07:33:02;9.02;;;3.17;;
3567;SDS011;1798;48.486;9.232;2022-11-20T07:35:30;6.70;;;3.80;;
3567;SDS011;1798;48.486;9.232;2022-11-20T07:37:57;7.80;;;3.70;;
3567;SDS011;1798;48.486;9.232;2022-11-20T07:40:24;5.45;;;3.03;;
3567;SDS011;1798;48.486;9.232;2022-11-20T07:42:51;6.78;;;3.33;;
3567;SDS011;1798;48.486;9.232;2022-11-20T07:45:19;11.52;;;3.30;;
3567;SDS011;1798;48.486;9.232;2022-11-20T07:47:46;6.45;;;3.83;;
3567;SDS011;1798;48.486;9.232;2022-11-20T07:50:13;6.10;;;3.50;;
3567;SDS011;1798;48.486;9.232;2022-11-20T07:52:42;6.45;;;3.35;;
3567;SDS011;1798;48.486;9.232;2022-11-20T07:55:09;10.20;;;3.60;;
3567;SDS011;1798;48.486;9.232;2022-11-20T07:57:36;7.28;;;3.67;;
3567;SDS011;1798;48.486;9.232;2022-11-20T08:00:04;9.70;;;2.95;;
3567;SDS011;1798;48.486;9.232;2022-11-20T08:02:32;6.60;;;3.15;;
3567;SDS011;1798;48.486;9.232;2022-11-20T08:04:58;4.72;;;2.80;;
3567;SDS011;1798;48.486;9.232;2022-11-20T08:07:25;5.15;;;3.38;;
3567;SDS011;1798;48.486;9.232;2022-11-20T08:09:53;5.43;;;3.30;;
3567;SDS011;1798;48.486;9.232;2022-11-20T08:12:20;5.95;;;2.90;;
3567;SDS011;1798;48.486;9.232;2022-11-20T08:15:05;5.30;;;3.30;;
3567;SDS011;1798;48.486;9.232;2022-11-20T08:17:33;5.38;;;2.75;;
3567;SDS011;1798;48.486;9.232;2022-11-20T08:20:00;5.93;;;3.30;;
3567;SDS011;1798;48.486;9.232;2022-11-20T08:22:26;6.60;;;2.90;;
3567;SDS011;1798;48.486;9.232;2022-11-20T08:24:55;6.00;;;3.40;;
3567;SDS011;1798;48.486;9.232;2022-11-20T08:27:22;6.45;;;3.50;;
3567;SDS011;1798;48.486;9.232;2022-11-20T08:29:49;5.45;;;2.80;;
3567;SDS011;1798;48.486;9.232;2022-11-20T08:32:15;4.93;;;2.60;;
3567;SDS011;1798;48.486;9.232;2022-11-20T08:34:42;5.45;;;3.28;;
3567;SDS011;1798;48.486;9.232;2022-11-20T08:37:09;6.43;;;3.20;;
3567;SDS011;1798;48.486;9.232;2022-11-20T08:39:35;5.07;;;3.03;;
3567;SDS011;1798;48.486;9.232;2022-11-20T08:42:06;5.13;;;3.00;;
3567;SDS011;1798;48.486;9.232;2022-11-20T08:44:33;5.00;;;3.00;;
3567;SDS011;1798;48.486;9.232;2022-11-20T08:46:59;7.85;;;3.03;;
3567;SDS011;1798;48.486;9.232;2022-11-20T08:49:26;4.90;;;2.40;;
3567;SDS011;1798;48.486;9.232;2022-11-20T08:51:53;5.05;;;2.92;;
3567;SDS011;1798;48.486;9.232;2022-11-20T08:54:20;5.00;;;3.00;;
3567;SDS011;1798;48.486;9.232;2022-11-20T08:56:47;6.72;;;3.40;;
3567;SDS011;1798;48.486;9.232;2022-11-20T08:59:15;4.78;;;2.80;;
3567;SDS011;1798;48.486;9.232;2022-11-20T09:01:42;7.40;;;3.38;;
3567;SDS011;1798;48.486;9.232;2022-11-20T09:04:09;5.38;;;3.00;;
3567;SDS011;1798;48.486;9.232;2022-11-20T09:06:36;5.18;;;2.63;;
3567;SDS011;1798;48.486;9.232;2022-11-20T09:09:03;4.95;;;2.80;;
3567;SDS011;1798;48.486;9.232;2022-11-20T09:11:30;9.17;;;3.30;;
3567;SDS011;1798;48.486;9.232;2022-11-20T09:13:57;5.28;;;2.78;;
3567;SDS011;1798;48.486;9.232;2022-11-20T09:16:26;4.35;;;2.50;;
3567;SDS011;1798;48.486;9.232;2022-11-20T09:18:53;5.72;;;3.33;;
3567;SDS011;1798;48.486;9.232;2022-11-20T09:21:19;4.80;;;2.75;;
3567;SDS011;1798;48.486;9.232;2022-11-20T09:23:47;4.90;;;2.90;;
3567;SDS011;1798;48.486;9.232;2022-11-20T09:26:14;6.10;;;3.05;;
3567;SDS011;1798;48.486;9.232;2022-11-20T09:28:41;5.05;;;2.85;;
3567;SDS011;1798;48.486;9.232;2022-11-20T09:31:08;5.40;;;3.20;;
3567;SDS011;1798;48.486;9.232;2022-11-20T09:33:37;6.97;;;2.80;;
3567;SDS011;1798;48.486;9.232;2022-11-20T09:36:04;4.78;;;2.90;;
3567;SDS011;1798;48.486;9.232;2022-11-20T09:38:31;5.40;;;3.20;;
3567;SDS011;1798;48.486;9.232;2022-11-20T09:40:58;6.30;;;3.08;;
3567;SDS011;1798;48.486;9.232;2022-11-20T09:43:32;4.57;;;2.83;;
3567;SDS011;1798;48.486;9.232;2022-11-20T09:46:08;6.40;;;3.40;;
3567;SDS011;1798;48.486;9.232;2022-11-20T09:48:45;6.05;;;3.10;;
3567;SDS011;1798;48.486;9.232;2022-11-20T09:51:26;5.03;;;2.90;;
3567;SDS011;1798;48.486;9.232;2022-11-20T09:54:01;5.80;;;3.10;;
3567;SDS011;1798;48.486;9.232;2022-11-20T09:56:33;4.82;;;2.90;;
3567;SDS011;1798;48.486;9.232;2022-11-20T09:59:02;6.10;;;3.28;;
3567;SDS011;1798;48.486;9.232;2022-11-20T10:01:31;5.50;;;3.20;;
3567;SDS011;1798;48.486;9.232;2022-11-20T10:04:01;5.78;;;2.88;;
3567;SDS011;1798;48.486;9.232;2022-11-20T10:06:30;5.75;;;2.97;;
3567;SDS011;1798;48.486;9.232;2022-11-20T10:09:03;5.65;;;3.00;;
3567;SDS011;1798;48.486;9.232;2022-11-20T10:11:35;6.57;;;3.10;;
3567;SDS011;1798;48.486;9.232;2022-11-20T10:14:13;6.50;;;3.50;;
3567;SDS011;1798;48.486;9.232;2022-11-20T10:16:46;4.40;;;2.83;;
3567;SDS011;1798;48.486;9.232;2022-11-20T10:19:23;6.50;;;3.10;;
3567;SDS011;1798;48.486;9.232;2022-11-20T10:21:58;5.15;;;3.10;;
3567;SDS011;1798;48.486;9.232;2022-11-20T10:24:41;5.30;;;2.90;;
3567;SDS011;1798;48.486;9.232;2022-11-20T10:27:24;7.53;;;3.30;;
3567;SDS011;1798;48.486;9.232;2022-11-20T10:30:08;8.90;;;3.20;;
3567;SDS011;1798;48.486;9.232;2022-11-20T10:32:36;4.93;;;2.90;;
3567;SDS011;1798;48.486;9.232;2022-11-20T10:35:06;8.52;;;2.90;;
3567;SDS011;1798;48.486;9.232;2022-11-20T10:37:42;6.70;;;3.25;;
3567;SDS011;1798;48.486;9.232;2022-11-20T10:40:17;5.40;;;3.20;;
3567;SDS011;1798;48.486;9.232;2022-11-20T10:42:48;6.40;;;3.70;;
3567;SDS011;1798;48.486;9.232;2022-11-20T10:45:18;5.70;;;2.78;;
3567;SDS011;1798;48.486;9.232;2022-11-20T10:47:48;6.47;;;3.20;;
3567;SDS011;1798;48.486;9.232;2022-11-20T10:50:18;10.35;;;3.40;;
3567;SDS011;1798;48.486;9.232;2022-11-20T10:52:48;6.00;;;3.30;;
3567;SDS011;1798;48.486;9.232;2022-11-20T10:55:24;5.97;;;3.38;;
3567;SDS011;1798;48.486;9.232;2022-11-20T10:57:58;7.05;;;3.20;;
3567;SDS011;1798;48.486;9.232;2022-11-20T11:00:30;4.85;;;3.08;;
3567;SDS011;1798;48.486;9.232;2022-11-20T11:02:57;5.80;;;3.30;;
3567;SDS011;1798;48.486;9.232;2022-11-20T11:05:32;6.93;;;3.00;;
3567;SDS011;1798;48.486;9.232;2022-11-20T11:08:01;6.50;;;3.40;;
3567;SDS011;1798;48.486;9.232;2022-11-20T11:10:32;4.88;;;3.13;;
3567;SDS011;1798;48.486;9.232;2022-11-20T11:13:02;6.15;;;3.60;;
3567;SDS011;1798;48.486;9.232;2022-11-20T11:15:29;5.00;;;3.10;;
3567;SDS011;1798;48.486;9.232;2022-11-20T11:18:02;6.13;;;3.40;;
3567;SDS011;1798;48.486;9.232;2022-11-20T11:20:30;5.53;;;3.30;;
3567;SDS011;1798;48.486;9.232;2022-11-20T11:22:58;5.72;;;3.10;;
3567;SDS011;1798;48.486;9.232;2022-11-20T11:25:26;5.90;;;3.40;;
3567;SDS011;1798;48.486;9.232;2022-11-20T11:27:55;5.90;;;3.00;;
3567;SDS011;1798;48.486;9.232;2022-11-20T11:30:24;5.70;;;3.70;;
3567;SDS011;1798;48.486;9.232;2022-11-20T11:33:02;5.75;;;3.50;;
3567;SDS011;1798;48.486;9.232;2022-11-20T11:35:32;5.20;;;3.27;;
3567;SDS011;1798;48.486;9.232;2022-11-20T11:38:03;8.88;;;3.60;;
3567;SDS011;1798;48.486;9.232;2022-11-20T11:40:32;5.95;;;3.33;;
3567;SDS011;1798;48.486;9.232;2022-11-20T11:43:01;5.13;;;2.90;;
3567;SDS011;1798;48.486;9.232;2022-11-20T11:45:28;5.05;;;3.20;;
3567;SDS011;1798;48.486;9.232;2022-11-20T11:47:55;7.77;;;2.90;;
3567;SDS011;1798;48.486;9.232;2022-11-20T11:50:23;5.45;;;3.00;;
3567;SDS011;1798;48.486;9.232;2022-11-20T11:52:58;5.22;;;2.95;;
3567;SDS011;1798;48.486;9.232;2022-11-20T11:55:29;6.07;;;3.08;;
3567;SDS011;1798;48.486;9.232;2022-11-20T11:58:02;6.63;;;2.90;;
3567;SDS011;1798;48.486;9.232;2022-11-20T12:00:33;5.80;;;3.20;;
3567;SDS011;1798;48.486;9.232;2022-11-20T12:03:03;6.18;;;3.35;;
3567;SDS011;1798;48.486;9.232;2022-11-20T12:05:35;4.75;;;2.67;;
3567;SDS011;1798;48.486;9.232;2022-11-20T12:08:12;9.10;;;3.60;;
3567;SDS011;1798;48.486;9.232;2022-11-20T12:10:44;7.03;;;3.20;;
3567;SDS011;1798;48.486;9.232;2022-11-20T12:13:16;4.60;;;2.80;;
3567;SDS011;1798;48.486;9.232;2022-11-20T12:15:47;7.80;;;2.92;;
3567;SDS011;1798;48.486;9.232;2022-11-20T12:18:15;10.63;;;3.40;;
3567;SDS011;1798;48.486;9.232;2022-11-20T12:20:44;5.80;;;3.10;;
3567;SDS011;1798;48.486;9.232;2022-11-20T12:23:16;4.80;;;2.88;;
3567;SDS011;1798;48.486;9.232;2022-11-20T12:25:45;6.03;;;3.10;;
3567;SDS011;1798;48.486;9.232;2022-11-20T12:28:33;6.40;;;3.10;;
3567;SDS011;1798;48.486;9.232;2022-11-20T12:31:10;5.60;;;3.00;;
3567;SDS011;1798;48.486;9.232;2022-11-20T12:33:57;5.32;;;3.03;;
3567;SDS011;1798;48.486;9.232;2022-11-20T12:36:35;6.10;;;3.00;;
3567;SDS011;1798;48.486;9.232;2022-11-20T12:39:15;5.78;;;2.70;;
3567;SDS011;1798;48.486;9.232;2022-11-20T12:45:04;5.85;;;2.90;;
3567;SDS011;1798;48.486;9.232;2022-11-20T12:47:57;5.28;;;2.80;;
3567;SDS011;1798;48.486;9.232;2022-11-20T12:50:37;5.90;;;2.90;;
3567;SDS011;1798;48.486;9.232;2022-11-20T12:53:10;5.32;;;3.03;;
3567;SDS011;1798;48.486;9.232;2022-11-20T12:55:49;4.67;;;2.70;;
3567;SDS011;1798;48.486;9.232;2022-11-20T12:58:20;5.93;;;3.33;;
3567;SDS011;1798;48.486;9.232;2022-11-20T13:00:54;5.45;;;2.97;;
3567;SDS011;1798;48.486;9.232;2022-11-20T13:03:27;9.27;;;3.40;;
3567;SDS011;1798;48.486;9.232;2022-11-20T13:06:03;7.20;;;3.30;;
3567;SDS011;1798;48.486;9.232;2022-11-20T13:08:36;6.97;;;3.03;;
3567;SDS011;1798;48.486;9.232;2022-11-20T13:11:09;6.30;;;3.10;;
3567;SDS011;1798;48.486;9.232;2022-11-20T13:13:42;5.47;;;3.10;;
3567;SDS011;1798;48.486;9.232;2022-11-20T13:16:14;9.80;;;3.60;;
3567;SDS011;1798;48.486;9.232;2022-11-20T13:18:43;7.50;;;3.10;;
3567;SDS011;1798;48.486;9.232;2022-11-20T13:21:14;5.83;;;2.77;;
3567;SDS011;1798;48.486;9.232;2022-11-20T13:23:41;7.80;;;3.30;;
3567;SDS011;1798;48.486;9.232;2022-11-20T13:26:15;8.03;;;3.30;;
3567;SDS011;1798;48.486;9.232;2022-11-20T13:28:45;8.45;;;3.30;;
3567;SDS011;1798;48.486;9.232;2022-11-20T13:31:23;6.07;;;2.95;;
3567;SDS011;1798;48.486;9.232;2022-11-20T13:33:54;5.32;;;3.00;;
3567;SDS011;1798;48.486;9.232;2022-11-20T13:36:22;7.90;;;3.70;;
3567;SDS011;1798;48.486;9.232;2022-11-20T13:38:51;14.15;;;4.40;;
3567;SDS011;1798;48.486;9.232;2022-11-20T13:41:25;9.20;;;3.72;;
3567;SDS011;1798;48.486;9.232;2022-11-20T13:43:57;14.07;;;4.10;;
3567;SDS011;1798;48.486;9.232;2022-11-20T13:46:34;9.73;;;3.80;;
3567;SDS011;1798;48.486;9.232;2022-11-20T13:49:06;17.55;;;3.92;;
3567;SDS011;1798;48.486;9.232;2022-11-20T13:51:35;14.83;;;3.93;;
3567;SDS011;1798;48.486;9.232;2022-11-20T13:57:33;8.68;;;4.15;;
3567;SDS011;1798;48.486;9.232;2022-11-20T14:00:09;8.98;;;4.20;;
3567;SDS011;1798;48.486;9.232;2022-11-20T14:02:38;11.53;;;3.80;;
3567;SDS011;1798;48.486;9.232;2022-11-20T14:05:05;11.98;;;3.67;;
3567;SDS011;1798;48.486;9.232;2022-11-20T14:07:34;9.88;;;3.40;;
3567;SDS011;1798;48.486;9.232;2022-11-20T14:10:02;9.43;;;3.88;;
3567;SDS011;1798;48.486;9.232;2022-11-20T14:12:32;7.28;;;3.53;;
3567;SDS011;1798;48.486;9.232;2022-11-20T14:14:59;9.48;;;3.88;;
3567;SDS011;1798;48.486;9.232;2022-11-20T14:17:29;11.07;;;3.97;;
3567;SDS011;1798;48.486;9.232;2022-11-20T14:19:58;8.48;;;3.13;;
3567;SDS011;1798;48.486;9.232;2022-11-20T14:22:27;8.80;;;3.13;;
3567;SDS011;1798;48.486;9.232;2022-11-20T14:25:02;6.85;;;3.35;;
3567;SDS011;1798;48.486;9.232;2022-11-20T14:27:34;13.10;;;3.78;;
3567;SDS011;1798;48.486;9.232;2022-11-20T14:30:03;9.30;;;3.95;;
3567;SDS011;1798;48.486;9.232;2022-11-20T14:32:30;10.98;;;3.55;;
3567;SDS011;1798;48.486;9.232;2022-11-20T14:34:58;11.70;;;3.83;;
3567;SDS011;1798;48.486;9.232;2022-11-20T14:37:28;9.10;;;4.00;;
3567;SDS011;1798;48.486;9.232;2022-11-20T14:39:59;7.90;;;3.60;;
3567;SDS011;1798;48.486;9.232;2022-11-20T14:42:26;8.05;;;3.58;;
3567;SDS011;1798;48.486;9.232;2022-11-20T14:44:57;7.05;;;3.80;;
3567;SDS011;1798;48.486;9.232;2022-11-20T14:47:25;9.70;;;4.03;;
3567;SDS011;1798;48.486;9.232;2022-11-20T14:49:54;6.85;;;3.30;;
3567;SDS011;1798;48.486;9.232;2022-11-20T14:52:22;7.63;;;3.90;;
3567;SDS011;1798;48.486;9.232;2022-11-20T14:54:51;6.60;;;3.60;;
3567;SDS011;1798;48.486;9.232;2022-11-20T14:57:25;9.93;;;3.55;;
3567;SDS011;1798;48.486;9.232;2022-11-20T15:00:05;6.20;;;3.22;;
3567;SDS011;1798;48.486;9.232;2022-11-20T15:02:33;7.15;;;3.33;;
3567;SDS011;1798;48.486;9.232;2022-11-20T15:05:01;7.90;;;3.63;;
3567;SDS011;1798;48.486;9.232;2022-11-20T15:07:29;15.18;;;3.67;;
3567;SDS011;1798;48.486;9.232;2022-11-20T15:10:00;8.52;;;3.40;;
3567;SDS011;1798;48.486;9.232;2022-11-20T15:12:28;11.10;;;3.80;;
3567;SDS011;1798;48.486;9.232;2022-11-20T15:14:56;8.45;;;3.95;;
3567;SDS011;1798;48.486;9.232;2022-11-20T15:17:24;9.50;;;3.80;;
3567;SDS011;1798;48.486;9.232;2022-11-20T15:19:51;8.30;;;3.67;;
3567;SDS011;1798;48.486;9.232;2022-11-20T15:22:18;9.63;;;3.40;;
3567;SDS011;1798;48.486;9.232;2022-11-20T15:24:45;8.53;;;3.80;;
3567;SDS011;1798;48.486;9.232;2022-11-20T15:27:12;8.57;;;3.10;;
3567;SDS011;1798;48.486;9.232;2022-11-20T15:29:38;5.18;;;3.00;;
3567;SDS011;1798;48.486;9.232;2022-11-20T15:32:05;9.90;;;3.20;;